^^
Meteo Knjazevac Station Historical Data
Daily Summary for July 21, 2021 Units:  English    Metric   Both
Daily Weekly Monthly Yearly Custom
  High: Low: Average:
Temperature: 41 °F 39 °F 40 °F
Dew Point: 40.7 °F 38.3 °F 39.5 °F
Humidity: 99% 95% 98%
Wind Speed: 5mph 0mph 1.9mph
Wind Gust: 8mph - -
Wind- - WNW
Pressure: 30.26 in 30.20 in -
Precipitation: 0.00 in    
Historical Graphs
 
 
Tabular Data for July 21, 2021
Time Temperature Dew Point Pressure Wind Wind Speed Wind Gust Humidity Rainfall Rate (Hourly) solar Conditions
00:00 40.3 °F 39 °F 30.26 in West 5 mph 6 mph 95% 0.00 in 0 W/m2
00:10 40.5 °F 39.9 °F 30.26 in West 5 mph 8 mph 98% 0.00 in 0 W/m2
00:20 40.8 °F 40.3 °F 30.26 in West 5 mph 7 mph 98% 0.00 in 0 W/m2
00:30 40.8 °F 40.3 °F 30.25 in West 2 mph 6 mph 98% 0.00 in 0 W/m2
00:40 40.6 °F 40.1 °F 30.25 in West 3 mph 5 mph 98% 0.00 in 0 W/m2
00:50 40.6 °F 40.1 °F 30.25 in West 3 mph 5 mph 98% 0.00 in 0 W/m2
01:00 40.6 °F 40.1 °F 30.25 in West 2 mph 5 mph 98% 0.00 in 0 W/m2
01:10 40.3 °F 39.2 °F 30.25 in West 3 mph 5 mph 96% 0.00 in 0 W/m2
01:20 40.1 °F 39.6 °F 30.25 in West 2 mph 5 mph 98% 0.00 in 0 W/m2
01:30 40.1 °F 39.6 °F 30.25 in West 2 mph 5 mph 98% 0.00 in 0 W/m2
01:40 40.3 °F 40 °F 30.25 in West 3 mph 6 mph 99% 0.00 in 0 W/m2
01:50 40.1 °F 39.6 °F 30.25 in WNW 2 mph 6 mph 98% 0.00 in 0 W/m2
02:00 40.1 °F 39.6 °F 30.25 in WNW 2 mph 6 mph 98% 0.00 in 0 W/m2
02:10 39.7 °F 39.2 °F 30.25 in West 1 mph 4 mph 98% 0.00 in 0 W/m2
02:20 39.7 °F 39.2 °F 30.25 in West 1 mph 6 mph 98% 0.00 in 0 W/m2
02:30 39.7 °F 39.5 °F 30.24 in WNW 1 mph 4 mph 99% 0.00 in 0 W/m2
02:40 39.9 °F 39.7 °F 30.24 in WNW 2 mph 4 mph 99% 0.00 in 0 W/m2
02:50 40.1 °F 39.8 °F 30.24 in NW 1 mph 6 mph 99% 0.00 in 0 W/m2
03:00 40.1 °F 39.8 °F 30.24 in Calm   3 mph 99% 0.00 in 0 W/m2
03:10 39.9 °F 39.4 °F 30.23 in NNW 2 mph 3 mph 98% 0.00 in 0 W/m2
03:20 39.7 °F 39.2 °F 30.23 in WNW 1 mph 3 mph 98% 0.00 in 0 W/m2
03:30 39.9 °F 39.7 °F 30.23 in WNW 2 mph 5 mph 99% 0.00 in 0 W/m2
03:40 40.3 °F 40 °F 30.22 in WNW 3 mph 5 mph 99% 0.00 in 0 W/m2
03:50 40.5 °F 40.2 °F 30.22 in NW 1 mph 5 mph 99% 0.00 in 0 W/m2
04:00 41 °F 40.7 °F 30.22 in Calm   5 mph 99% 0.00 in 0 W/m2
04:10 40.3 °F 39.8 °F 30.22 in NW 1 mph 3 mph 98% 0.00 in 0 W/m2
04:20 39.7 °F 39.2 °F 30.22 in WNW 2 mph 4 mph 98% 0.00 in 0 W/m2
04:30 39.4 °F 38.3 °F 30.22 in NW 1 mph 3 mph 96% 0.00 in 0 W/m2
04:40 39.2 °F 38.7 °F 30.21 in West 2 mph 6 mph 98% 0.00 in 0 W/m2
04:50 39 °F 38.8 °F 30.21 in West 1 mph 4 mph 99% 0.00 in 0 W/m2
05:00 39.2 °F 38.9 °F 30.21 in WNW 2 mph 6 mph 99% 0.00 in 0 W/m2
05:10 39.6 °F 39.3 °F 30.21 in NW 1 mph 5 mph 99% 0.00 in 0 W/m2
05:20 39.6 °F 39.3 °F 30.21 in NNW 2 mph 3 mph 99% 0.00 in 0 W/m2
05:30 39.6 °F 39.3 °F 30.21 in NW 1 mph 3 mph 99% 0.00 in 0 W/m2
05:40 39.2 °F 38.9 °F 30.20 in WNW 1 mph 3 mph 99% 0.00 in 0 W/m2
05:50 39 °F 38.8 °F 30.20 in West 2 mph 5 mph 99% 0.00 in 0 W/m2
06:00 39.4 °F 39.1 °F 30.20 in NW 2 mph 5 mph 99% 0.00 in 0 W/m2
Knjazevac, Serbia
Compliments of Weather Underground - 2 mb